createdAt,value
2023-04-02T00:01:20.245Z,69.45
2023-04-02T00:04:43.297Z,69.45
2023-04-02T00:08:18.698Z,69.72
2023-04-02T00:11:43.369Z,69.56
2023-04-02T00:15:05.371Z,68.40
2023-04-02T00:18:28.357Z,68.87
2023-04-02T00:21:53.026Z,68.90
2023-04-02T00:25:15.147Z,68.80
2023-04-02T00:28:36.679Z,69.03
2023-04-02T00:32:00.960Z,67.25
2023-04-02T00:35:27.559Z,67.16
2023-04-02T00:38:50.904Z,67.70
2023-04-02T00:42:14.271Z,66.79
2023-04-02T00:45:38.660Z,66.49
2023-04-02T00:49:08.053Z,66.53
2023-04-02T00:52:33.155Z,66.10
2023-04-02T00:55:58.590Z,66.35
2023-04-02T00:59:26.305Z,67.00
2023-04-02T01:03:19.935Z,66.94
2023-04-02T01:06:43.961Z,67.28
2023-04-02T01:10:21.707Z,67.14
2023-04-02T01:13:58.782Z,67.78
2023-04-02T01:17:36.318Z,67.66
2023-04-02T01:21:26.099Z,68.10
2023-04-02T01:24:48.535Z,66.88
2023-04-02T01:28:21.121Z,66.72
2023-04-02T01:31:46.823Z,67.42
2023-04-02T01:35:10.481Z,67.35
2023-04-02T01:38:39.438Z,67.26
2023-04-02T01:42:10.346Z,67.78
2023-04-02T01:45:32.433Z,67.42
2023-04-02T01:48:56.580Z,67.78
2023-04-02T01:52:27.339Z,67.62
2023-04-02T01:55:52.496Z,67.53
2023-04-02T01:59:16.459Z,67.84
2023-04-02T02:02:39.549Z,67.66
2023-04-02T02:06:03.632Z,67.62
2023-04-02T02:09:28.556Z,67.98
2023-04-02T02:12:50.793Z,66.92
2023-04-02T02:16:18.940Z,67.32
2023-04-02T02:19:45.088Z,67.27
2023-04-02T02:23:09.102Z,66.92
2023-04-02T02:26:34.020Z,67.54
2023-04-02T02:30:00.498Z,66.46
2023-04-02T02:33:26.193Z,67.03
2023-04-02T02:36:55.917Z,67.26
2023-04-02T02:40:26.288Z,67.01
2023-04-02T02:43:54.297Z,67.42
2023-04-02T02:47:17.982Z,66.18
2023-04-02T02:50:41.240Z,66.30
2023-04-02T02:54:07.735Z,67.24
2023-04-02T02:57:36.089Z,66.67
2023-04-02T03:00:57.983Z,67.24
2023-04-02T03:04:22.925Z,66.42
2023-04-02T03:07:47.312Z,66.95
2023-04-02T03:11:15.321Z,66.86
2023-04-02T03:14:45.340Z,66.98
2023-04-02T03:18:15.339Z,66.71
2023-04-02T03:21:46.075Z,66.89
2023-04-02T03:25:23.711Z,66.85
2023-04-02T03:28:56.704Z,66.42
2023-04-02T03:32:24.430Z,66.74
2023-04-02T03:35:51.051Z,66.50
2023-04-02T03:39:18.276Z,66.87
2023-04-02T03:42:49.049Z,66.63
2023-04-02T03:46:25.319Z,66.82
2023-04-02T03:49:57.113Z,66.64
2023-04-02T03:53:23.724Z,67.13
2023-04-02T03:56:47.730Z,67.07
2023-04-02T04:00:21.796Z,67.06
2023-04-02T04:03:52.022Z,66.83
2023-04-02T04:07:22.763Z,67.35
2023-04-02T04:10:45.610Z,67.66
2023-04-02T04:14:12.234Z,67.00
2023-04-02T04:17:38.680Z,68.17
2023-04-02T04:21:04.019Z,65.83
2023-04-02T04:24:39.303Z,65.64
2023-04-02T04:28:10.614Z,66.10
2023-04-02T04:31:39.916Z,67.07
2023-04-02T04:35:08.162Z,67.04
2023-04-02T04:38:33.911Z,66.87
2023-04-02T04:42:01.411Z,67.16
2023-04-02T04:45:42.005Z,66.76
2023-04-02T04:49:09.305Z,66.93
2023-04-02T04:52:37.638Z,66.44
2023-04-02T04:56:16.054Z,66.57
2023-04-02T04:59:46.916Z,66.72
2023-04-02T05:03:18.263Z,66.82
2023-04-02T05:06:44.208Z,67.40
2023-04-02T05:10:14.718Z,68.00
2023-04-02T05:13:41.946Z,67.87
2023-04-02T05:17:11.566Z,67.51
2023-04-02T05:20:38.748Z,67.57
2023-04-02T05:24:24.330Z,66.81
2023-04-02T05:27:53.664Z,67.19
2023-04-02T05:31:19.962Z,66.64
2023-04-02T05:34:49.596Z,66.32
2023-04-02T05:38:21.811Z,66.40
2023-04-02T05:41:45.984Z,66.29
2023-04-02T05:45:26.020Z,66.61
2023-04-02T05:48:53.969Z,66.45
2023-04-02T05:52:23.148Z,66.48
2023-04-02T05:55:54.309Z,66.39
2023-04-02T05:59:21.641Z,66.09
2023-04-02T06:02:54.836Z,65.10
2023-04-02T06:06:24.931Z,66.04
2023-04-02T06:09:52.074Z,65.72
2023-04-02T06:13:18.997Z,65.03
2023-04-02T06:16:41.598Z,65.41
2023-04-02T06:20:07.642Z,65.92
2023-04-02T06:23:37.090Z,64.43
2023-04-02T06:27:07.011Z,64.38
2023-04-02T06:30:33.022Z,64.11
2023-04-02T06:33:56.496Z,63.88
2023-04-02T06:37:27.639Z,64.18
2023-04-02T06:41:04.211Z,63.52
2023-04-02T06:44:38.043Z,63.79
2023-04-02T06:48:20.804Z,63.86
2023-04-02T06:51:50.494Z,63.38
2023-04-02T06:55:29.932Z,62.87
2023-04-02T06:58:51.948Z,62.65
2023-04-02T07:02:28.345Z,61.16
2023-04-02T07:05:50.779Z,60.46
2023-04-02T07:09:13.863Z,60.44
2023-04-02T07:12:39.881Z,60.34
2023-04-02T07:16:02.131Z,60.72
2023-04-02T07:19:26.048Z,60.57
2023-04-02T07:22:51.584Z,59.66
2023-04-02T07:26:16.573Z,60.40
2023-04-02T07:29:42.591Z,59.23
2023-04-02T07:33:04.472Z,60.54
2023-04-02T07:36:29.895Z,59.14
2023-04-02T07:39:51.364Z,59.64
2023-04-02T07:43:13.701Z,59.66
2023-04-02T07:46:35.544Z,59.49
2023-04-02T07:49:57.351Z,59.92
2023-04-02T07:53:29.906Z,60.23
2023-04-02T07:56:51.882Z,59.78
2023-04-02T08:00:14.533Z,59.09
2023-04-02T08:03:36.489Z,59.50
2023-04-02T08:06:58.158Z,57.87
2023-04-02T08:10:21.447Z,57.28
2023-04-02T08:13:43.227Z,56.81
2023-04-02T08:17:05.497Z,57.47
2023-04-02T08:20:27.414Z,58.01
2023-04-02T08:23:49.161Z,57.80
2023-04-02T08:27:14.864Z,56.38
2023-04-02T08:30:37.278Z,56.73
2023-04-02T08:33:58.841Z,56.84
2023-04-02T08:37:20.652Z,57.49
2023-04-02T08:40:44.896Z,56.57
2023-04-02T08:44:32.278Z,56.34
2023-04-02T08:47:57.496Z,56.77
2023-04-02T08:51:24.193Z,56.01
2023-04-02T08:54:45.983Z,55.47
2023-04-02T08:58:18.783Z,55.58
2023-04-02T09:01:51.799Z,56.11
2023-04-02T09:05:19.895Z,56.24
2023-04-02T09:08:45.051Z,55.57
2023-04-02T09:12:15.477Z,55.37
2023-04-02T09:15:37.764Z,55.61
2023-04-02T09:19:02.102Z,53.99
2023-04-02T09:22:26.148Z,54.45
2023-04-02T09:26:02.911Z,53.61
2023-04-02T09:29:54.624Z,53.88
2023-04-02T09:33:16.805Z,54.54
2023-04-02T09:36:40.783Z,54.05
2023-04-02T09:40:24.148Z,54.97
2023-04-02T09:43:46.404Z,54.96
2023-04-02T09:47:25.672Z,54.56
2023-04-02T09:50:47.209Z,54.24
2023-04-02T09:54:16.584Z,54.50
2023-04-02T09:57:38.799Z,54.92
2023-04-02T10:01:01.394Z,55.07
2023-04-02T10:04:37.525Z,55.08
2023-04-02T10:08:08.710Z,54.57
2023-04-02T10:11:46.441Z,54.80
2023-04-02T10:15:17.057Z,55.12
2023-04-02T10:18:44.861Z,55.57
2023-04-02T10:22:13.305Z,55.50
2023-04-02T10:25:46.022Z,54.04
2023-04-02T10:29:25.943Z,54.42
2023-04-02T10:32:52.220Z,53.91
2023-04-02T10:36:27.207Z,52.55
2023-04-02T10:39:55.174Z,52.18
2023-04-02T10:43:44.937Z,52.97
2023-04-02T10:47:23.426Z,53.38
2023-04-02T10:50:50.911Z,52.28
2023-04-02T10:54:27.997Z,52.96
2023-04-02T10:57:49.913Z,52.91
2023-04-02T11:01:18.048Z,52.72
2023-04-02T11:04:46.108Z,52.33
2023-04-02T11:08:17.713Z,52.54
2023-04-02T11:11:42.591Z,51.94
2023-04-02T11:15:05.545Z,51.58
2023-04-02T11:18:29.917Z,52.03
2023-04-02T11:22:00.020Z,49.49
2023-04-02T11:25:24.557Z,49.65
2023-04-02T11:28:46.922Z,50.86
2023-04-02T11:32:29.128Z,51.66
2023-04-02T11:35:50.759Z,50.57
2023-04-02T11:39:17.413Z,50.58
2023-04-02T11:42:40.475Z,49.87
2023-04-02T11:46:04.133Z,50.78
2023-04-02T11:49:57.577Z,50.11
2023-04-02T11:53:23.224Z,49.65
2023-04-02T11:56:55.808Z,49.58
2023-04-02T12:00:29.102Z,50.68
2023-04-02T12:04:06.185Z,49.61
2023-04-02T12:07:55.211Z,50.03
2023-04-02T12:11:17.042Z,49.10
2023-04-02T12:14:48.257Z,49.09
2023-04-02T12:18:17.381Z,48.40
2023-04-02T12:21:39.179Z,46.95
2023-04-02T12:25:06.406Z,47.47
2023-04-02T12:28:30.034Z,47.94
2023-04-02T12:31:54.195Z,48.00
2023-04-02T12:35:29.592Z,49.36
2023-04-02T12:38:52.980Z,48.01
2023-04-02T12:42:28.111Z,48.64
2023-04-02T12:45:53.430Z,48.84
2023-04-02T12:49:26.724Z,48.83
2023-04-02T12:52:51.268Z,49.56
2023-04-02T12:56:21.421Z,49.86
2023-04-02T12:59:44.717Z,50.52
2023-04-02T13:03:18.746Z,49.27
2023-04-02T13:06:48.729Z,48.54
2023-04-02T13:10:25.699Z,48.42
2023-04-02T13:13:48.619Z,48.99
2023-04-02T13:17:37.572Z,49.40
2023-04-02T13:21:00.667Z,50.16
2023-04-02T13:24:25.241Z,50.37
2023-04-02T13:27:46.971Z,49.48
2023-04-02T13:31:13.738Z,49.58
2023-04-02T13:34:35.450Z,48.83
2023-04-02T13:37:57.218Z,48.79
2023-04-02T13:41:23.967Z,49.72
2023-04-02T13:44:46.483Z,49.84
2023-04-02T13:48:14.470Z,49.24
2023-04-02T13:51:38.478Z,50.30
2023-04-02T13:55:01.260Z,50.18
2023-04-02T13:58:24.236Z,49.54
2023-04-02T14:01:47.462Z,49.88
2023-04-02T14:05:18.782Z,50.76
2023-04-02T14:08:54.303Z,51.11
2023-04-02T14:12:24.913Z,50.82
2023-04-02T14:16:04.112Z,50.15
2023-04-02T14:19:41.543Z,50.01
2023-04-02T14:23:33.246Z,50.27
2023-04-02T14:27:11.606Z,51.02
2023-04-02T14:30:41.609Z,50.89
2023-04-02T14:34:16.706Z,51.49
2023-04-02T14:37:43.754Z,49.79
2023-04-02T14:41:10.836Z,50.20
2023-04-02T14:44:39.589Z,49.73
2023-04-02T14:48:06.536Z,49.13
2023-04-02T14:51:35.814Z,49.75
2023-04-02T14:55:02.320Z,49.73
2023-04-02T14:58:27.673Z,49.76
2023-04-02T15:01:51.374Z,49.52
2023-04-02T15:05:18.400Z,48.54
2023-04-02T15:08:58.562Z,48.43
2023-04-02T15:12:31.686Z,48.41
2023-04-02T15:15:57.171Z,48.92
2023-04-02T15:19:20.312Z,50.02
2023-04-02T15:22:51.846Z,49.01
2023-04-02T15:26:21.753Z,47.63
2023-04-02T15:29:50.029Z,47.29
2023-04-02T15:33:35.460Z,47.70
2023-04-02T15:37:06.582Z,46.79
2023-04-02T15:40:47.671Z,47.42
2023-04-02T15:44:15.524Z,46.98
2023-04-02T15:47:48.697Z,45.32
2023-04-02T15:51:30.858Z,44.25
2023-04-02T15:55:03.321Z,44.73
2023-04-02T15:58:36.005Z,45.93
2023-04-02T16:02:16.176Z,45.34
2023-04-02T16:05:45.327Z,45.47
2023-04-02T16:09:18.995Z,45.77
2023-04-02T16:12:41.719Z,45.81
2023-04-02T16:16:06.945Z,44.49
2023-04-02T16:19:35.666Z,45.34
2023-04-02T16:23:06.505Z,44.45
2023-04-02T16:26:37.866Z,42.88
2023-04-02T16:30:09.610Z,43.58
2023-04-02T16:33:45.334Z,43.82
2023-04-02T16:37:14.938Z,43.44
2023-04-02T16:40:43.262Z,42.89
2023-04-02T16:44:16.258Z,43.61
2023-04-02T16:48:01.548Z,44.36
2023-04-02T16:51:30.131Z,45.69
2023-04-02T16:55:06.068Z,46.42
2023-04-02T16:58:43.516Z,46.98
2023-04-02T17:02:18.540Z,47.43
2023-04-02T17:05:50.649Z,47.88
2023-04-02T17:09:32.042Z,47.83
2023-04-02T17:13:13.007Z,48.27
2023-04-02T17:16:42.621Z,49.58
2023-04-02T17:20:04.164Z,49.44
2023-04-02T17:23:27.107Z,49.90
2023-04-02T17:26:52.641Z,50.74
2023-04-02T17:30:18.725Z,51.10
2023-04-02T17:33:40.315Z,51.43
2023-04-02T17:37:13.192Z,52.07
2023-04-02T17:40:41.615Z,51.92
2023-04-02T17:44:16.377Z,52.13
2023-04-02T17:47:51.476Z,51.91
2023-04-02T17:51:21.396Z,52.43
2023-04-02T17:54:52.233Z,53.11
2023-04-02T17:58:32.169Z,53.60
2023-04-02T18:02:03.181Z,54.25
2023-04-02T18:05:32.106Z,54.64
2023-04-02T18:09:05.317Z,55.11
2023-04-02T18:12:41.396Z,55.56
2023-04-02T18:16:14.394Z,55.03
2023-04-02T18:19:45.681Z,55.68
2023-04-02T18:23:20.420Z,56.07
2023-04-02T18:26:53.342Z,56.40
2023-04-02T18:30:23.182Z,56.74
2023-04-02T18:34:02.615Z,56.20
2023-04-02T18:37:33.121Z,56.48
2023-04-02T18:41:07.589Z,55.83
2023-04-02T18:44:48.874Z,55.78
2023-04-02T18:48:28.991Z,56.70
2023-04-02T18:51:55.678Z,56.29
2023-04-02T18:55:21.993Z,56.38
2023-04-02T18:58:53.135Z,56.09
2023-04-02T19:02:30.535Z,55.61
2023-04-02T19:05:56.549Z,56.32
2023-04-02T19:09:23.241Z,56.33
2023-04-02T19:12:45.413Z,56.62
2023-04-02T19:16:31.544Z,56.70
2023-04-02T19:20:04.299Z,56.94
2023-04-02T19:23:40.830Z,56.87
2023-04-02T19:27:09.102Z,57.36
2023-04-02T19:30:38.577Z,57.06
2023-04-02T19:34:11.068Z,57.05
2023-04-02T19:37:37.840Z,56.82
2023-04-02T19:41:10.454Z,57.24
2023-04-02T19:44:32.084Z,57.48
2023-04-02T19:47:54.731Z,56.73
2023-04-02T19:51:17.792Z,57.42
2023-04-02T19:54:39.708Z,56.62
2023-04-02T19:58:17.348Z,56.93
2023-04-02T20:01:41.274Z,56.74
2023-04-02T20:05:03.350Z,56.89
2023-04-02T20:08:27.113Z,56.83
2023-04-02T20:11:48.971Z,57.65
2023-04-02T20:15:11.565Z,57.91
2023-04-02T20:18:33.467Z,57.38
2023-04-02T20:21:56.292Z,57.24
2023-04-02T20:25:19.270Z,57.87
2023-04-02T20:28:41.431Z,58.31
2023-04-02T20:32:03.102Z,58.39
2023-04-02T20:35:25.606Z,58.14
2023-04-02T20:38:47.345Z,58.45
2023-04-02T20:42:10.883Z,57.88
2023-04-02T20:45:32.876Z,58.37
2023-04-02T20:48:54.440Z,58.39
2023-04-02T20:52:16.199Z,58.70
2023-04-02T20:55:37.608Z,58.53
2023-04-02T20:59:01.076Z,58.88
2023-04-02T21:02:22.978Z,59.20
2023-04-02T21:05:45.541Z,59.35
2023-04-02T21:09:09.010Z,59.67
2023-04-02T21:12:31.646Z,59.85
2023-04-02T21:15:54.808Z,59.70
2023-04-02T21:19:16.380Z,59.69
2023-04-02T21:22:38.181Z,60.38
2023-04-02T21:26:01.706Z,59.76
2023-04-02T21:29:23.241Z,59.83
2023-04-02T21:32:46.672Z,59.86
2023-04-02T21:36:09.924Z,60.22
2023-04-02T21:39:31.781Z,60.39
2023-04-02T21:42:55.372Z,60.55
2023-04-02T21:46:18.239Z,60.46
2023-04-02T21:49:41.370Z,60.49
2023-04-02T21:53:03.930Z,61.59
2023-04-02T21:56:27.871Z,61.91
2023-04-02T21:59:49.460Z,61.59
2023-04-02T22:03:13.666Z,61.76
2023-04-02T22:06:43.109Z,62.00
2023-04-02T22:10:04.910Z,61.95
2023-04-02T22:13:26.811Z,61.96
2023-04-02T22:16:48.695Z,61.85
2023-04-02T22:20:11.351Z,62.08
2023-04-02T22:23:35.650Z,61.89
2023-04-02T22:26:57.467Z,61.50
2023-04-02T22:30:19.302Z,61.88
2023-04-02T22:33:41.278Z,61.78
2023-04-02T22:37:02.962Z,61.70
2023-04-02T22:40:26.376Z,61.59
2023-04-02T22:43:48.033Z,61.76
2023-04-02T22:47:09.453Z,61.73
2023-04-02T22:50:31.284Z,61.38
2023-04-02T22:53:54.363Z,61.48
2023-04-02T22:57:17.297Z,61.45
2023-04-02T23:00:39.631Z,61.85
2023-04-02T23:04:01.161Z,61.66
2023-04-02T23:07:23.074Z,62.06
2023-04-02T23:10:44.600Z,61.96
2023-04-02T23:14:07.306Z,61.60
2023-04-02T23:17:29.814Z,61.62
2023-04-02T23:20:51.443Z,61.59
2023-04-02T23:24:13.396Z,61.90
2023-04-02T23:27:35.137Z,62.10
2023-04-02T23:30:58.298Z,61.72
2023-04-02T23:34:19.765Z,62.08
2023-04-02T23:37:42.085Z,61.98
2023-04-02T23:41:03.793Z,61.98
2023-04-02T23:44:25.711Z,62.40
2023-04-02T23:47:48.880Z,62.38
2023-04-02T23:51:10.681Z,62.79
2023-04-02T23:54:32.496Z,62.56
2023-04-02T23:57:54.322Z,62.65
